Time;durP1;ratioP1;P1;durP2;ratioP2;P2;SDS_P1;SDS_P2;PMS_P1;PMS_P2;Temp;Humidity;BMP_temperature;BMP_pressure;BME280_temperature;BME280_humidity;BME280_pressure;Samples;Min_cycle;Max_cycle;Signal;HPM_P1;HPM_P2
2023/12/02 00:02:05;;;;;;;34.60;5.22;;;;;;;-0.27;78.83;99870.81;4998765;28;20064;-48
2023/12/02 00:04:32;;;;;;;57.55;5.65;;;;;;;-0.24;78.65;99869.22;5000010;28;20046;-46
2023/12/02 00:06:59;;;;;;;27.17;5.90;;;;;;;-0.24;78.79;99864.97;4998643;28;20049;-43
2023/12/02 00:09:25;;;;;;;18.58;5.05;;;;;;;-0.22;78.73;99865.03;4999534;28;20056;-46
2023/12/02 00:11:52;;;;;;;34.65;4.63;;;;;;;-0.20;79.19;99863.44;4998693;28;20046;-42
2023/12/02 00:14:19;;;;;;;33.63;6.18;;;;;;;-0.21;78.75;99869.34;5003631;28;20045;-46
2023/12/02 00:16:45;;;;;;;38.20;6.82;;;;;;;-0.21;78.57;99866.81;4997955;28;20081;-44
2023/12/02 00:19:12;;;;;;;19.27;4.15;;;;;;;-0.23;79.09;99865.84;5002218;28;20414;-45
2023/12/02 00:21:39;;;;;;;8.88;3.40;;;;;;;-0.24;79.02;99866.69;5001683;28;20042;-47
2023/12/02 00:24:06;;;;;;;39.55;5.75;;;;;;;-0.24;78.82;99867.53;5002837;28;20050;-46
2023/12/02 00:26:33;;;;;;;34.42;5.40;;;;;;;-0.22;78.55;99857.41;5001308;28;20145;-42
2023/12/02 00:28:59;;;;;;;58.20;7.20;;;;;;;-0.24;78.63;99859.03;4998810;28;20595;-44
2023/12/02 00:31:26;;;;;;;41.05;4.82;;;;;;;-0.26;79.27;99853.88;4996795;28;20675;-41
2023/12/02 00:33:53;;;;;;;46.90;6.95;;;;;;;-0.27;78.86;99855.56;4997251;28;20062;-47
2023/12/02 00:36:20;;;;;;;35.33;5.30;;;;;;;-0.27;79.07;99860.66;4998487;28;20045;-43
2023/12/02 00:38:47;;;;;;;45.45;5.88;;;;;;;-0.26;78.89;99851.34;4999746;28;20483;-52
2023/12/02 00:41:13;;;;;;;32.53;6.65;;;;;;;-0.25;78.86;99853.06;4997415;28;20050;-48
2023/12/02 00:43:40;;;;;;;50.15;7.22;;;;;;;-0.23;79.46;99848.91;5011358;28;20042;-45
2023/12/02 00:46:07;;;;;;;36.95;7.10;;;;;;;-0.23;79.13;99853.13;5008836;28;20042;-44
2023/12/02 00:48:34;;;;;;;27.30;4.15;;;;;;;-0.23;79.04;99855.69;5006148;28;20084;-49
2023/12/02 00:51:01;;;;;;;12.15;4.22;;;;;;;-0.25;79.29;99858.16;5008373;28;20054;-47
2023/12/02 00:53:28;;;;;;;26.92;5.45;;;;;;;-0.27;79.27;99854.72;5011262;28;20193;-46
2023/12/02 00:55:54;;;;;;;15.00;3.55;;;;;;;-0.29;78.56;99856.31;5010630;28;20116;-47
2023/12/02 00:58:21;;;;;;;12.35;3.88;;;;;;;-0.32;78.45;99862.16;5009622;28;20152;-44
2023/12/02 01:01:01;;;;;;;9.52;4.07;;;;;;;-0.35;78.73;99856.94;5000447;28;20054;-51
2023/12/02 01:03:27;;;;;;;47.63;6.00;;;;;;;-0.36;78.69;99850.13;5002007;28;20050;-49
2023/12/02 01:05:54;;;;;;;33.95;5.38;;;;;;;-0.34;79.02;99860.38;5007649;28;20050;-42
2023/12/02 01:08:21;;;;;;;64.13;4.72;;;;;;;-0.33;79.01;99854.47;5015068;28;20432;-47
2023/12/02 01:10:48;;;;;;;22.23;3.50;;;;;;;-0.33;79.00;99857.88;5007706;28;20522;-48
2023/12/02 01:13:15;;;;;;;30.33;6.10;;;;;;;-0.32;78.68;99857.06;5008842;28;20478;-53
2023/12/02 01:15:42;;;;;;;21.85;5.20;;;;;;;-0.30;78.82;99850.34;5010996;28;20049;-45
2023/12/02 01:18:08;;;;;;;64.25;6.18;;;;;;;-0.28;79.40;99858.91;5007768;28;20100;-49
2023/12/02 01:20:35;;;;;;;41.97;5.38;;;;;;;-0.28;78.92;99851.28;5015120;28;20046;-50
2023/12/02 01:23:02;;;;;;;22.35;4.78;;;;;;;-0.28;79.29;99852.94;5007829;28;20049;-44
2023/12/02 01:25:28;;;;;;;37.33;5.60;;;;;;;-0.29;78.70;99859.72;5003803;28;20070;-49
2023/12/02 01:27:55;;;;;;;35.10;5.72;;;;;;;-0.29;78.69;99852.09;5005945;28;20534;-50
2023/12/02 01:30:21;;;;;;;21.60;6.07;;;;;;;-0.30;78.86;99855.44;5009023;28;20492;-45
2023/12/02 01:32:48;;;;;;;45.00;5.00;;;;;;;-0.30;79.03;99855.44;5007395;28;20111;-46
2023/12/02 01:35:15;;;;;;;41.33;6.72;;;;;;;-0.30;78.97;99855.44;5007994;28;20046;-45
2023/12/02 01:37:42;;;;;;;45.33;5.72;;;;;;;-0.30;78.60;99863.06;5002543;28;20080;-43
2023/12/02 01:40:11;;;;;;;53.90;5.55;;;;;;;-0.28;79.00;99858.91;4997825;28;20521;-46
2023/12/02 01:42:38;;;;;;;35.20;6.15;;;;;;;-0.27;78.83;99862.34;5003763;28;20074;-47
2023/12/02 01:45:05;;;;;;;27.08;6.10;;;;;;;-0.25;79.15;99858.16;5010174;28;20049;-46
2023/12/02 01:47:32;;;;;;;43.17;6.15;;;;;;;-0.24;79.11;99861.59;5013186;28;20116;-45
2023/12/02 01:50:00;;;;;;;24.63;4.50;;;;;;;-0.24;78.59;99864.97;5013844;28;20050;-43
2023/12/02 01:52:27;;;;;;;34.08;5.05;;;;;;;-0.26;78.28;99867.47;4999164;28;20058;-50
2023/12/02 01:54:54;;;;;;;18.60;4.20;;;;;;;-0.28;78.56;99863.13;5012426;28;20119;-45
2023/12/02 01:57:21;;;;;;;44.92;4.93;;;;;;;-0.29;78.41;99872.47;5014160;28;20091;-46
2023/12/02 01:59:53;;;;;;;43.42;5.03;;;;;;;-0.27;78.66;99882.72;5014208;28;20046;-46
2023/12/02 02:02:21;;;;;;;35.00;5.57;;;;;;;-0.28;78.33;99881.81;5006089;28;20100;-47
2023/12/02 02:04:49;;;;;;;30.48;3.60;;;;;;;-0.28;78.56;99875.84;4994965;28;20510;-44
2023/12/02 02:07:17;;;;;;;13.15;3.13;;;;;;;-0.29;78.32;99880.09;5003361;28;20042;-45
2023/12/02 02:09:46;;;;;;;34.05;6.43;;;;;;;-0.31;78.79;99879.16;5008088;28;20100;-44
2023/12/02 02:12:14;;;;;;;15.63;3.67;;;;;;;-0.32;79.00;99882.50;5006417;28;20050;-48
2023/12/02 02:14:41;;;;;;;18.02;3.83;;;;;;;-0.34;78.68;99884.13;5010325;28;20052;-45
2023/12/02 02:17:08;;;;;;;28.63;3.58;;;;;;;-0.35;78.49;99887.47;5007644;28;20404;-44
2023/12/02 02:19:35;;;;;;;23.85;4.05;;;;;;;-0.36;78.87;99890.84;5006072;28;20096;-46
2023/12/02 02:22:02;;;;;;;24.30;3.67;;;;;;;-0.38;78.67;99892.44;5005100;28;20042;-45
2023/12/02 02:24:28;;;;;;;24.40;3.10;;;;;;;-0.40;78.56;99887.28;5010460;28;20045;-45
2023/12/02 02:26:56;;;;;;;37.75;4.47;;;;;;;-0.42;78.14;99886.38;5008639;28;20078;-43
2023/12/02 02:29:22;;;;;;;44.80;4.85;;;;;;;-0.44;78.77;99892.22;5005683;28;20128;-41
2023/12/02 02:31:49;;;;;;;28.45;5.07;;;;;;;-0.44;78.63;99902.41;5010213;28;20045;-43
2023/12/02 02:34:17;;;;;;;19.70;5.20;;;;;;;-0.46;78.64;99898.91;5003655;28;20049;-47
2023/12/02 02:36:44;;;;;;;24.15;3.55;;;;;;;-0.45;78.48;99898.09;5004791;28;20041;-42
2023/12/02 02:39:11;;;;;;;4.90;1.85;;;;;;;-0.44;78.30;99904.94;5007356;28;20544;-46
2023/12/02 02:41:38;;;;;;;19.13;4.47;;;;;;;-0.46;78.56;99901.47;5000128;28;20139;-46
2023/12/02 02:44:05;;;;;;;7.38;2.15;;;;;;;-0.48;78.88;99900.56;5012290;28;20054;-45
2023/12/02 02:46:32;;;;;;;25.67;4.30;;;;;;;-0.52;78.08;99905.50;4995762;28;20044;-46
2023/12/02 02:48:59;;;;;;;18.25;3.15;;;;;;;-0.55;78.30;99905.38;5008962;28;20053;-44
2023/12/02 02:51:25;;;;;;;26.50;3.40;;;;;;;-0.61;78.68;99909.34;4996897;28;20050;-46
2023/12/02 02:53:52;;;;;;;19.05;4.55;;;;;;;-0.63;78.38;99906.75;4995899;28;20061;-47
2023/12/02 02:56:19;;;;;;;28.33;4.10;;;;;;;-0.61;78.76;99911.91;5005259;28;20057;-45
2023/12/02 02:58:46;;;;;;;13.25;3.35;;;;;;;-0.61;79.03;99917.84;4992383;28;20046;-47
2023/12/02 03:01:13;;;;;;;20.65;4.13;;;;;;;-0.62;78.34;99921.19;5000677;28;20048;-49
2023/12/02 03:03:40;;;;;;;20.23;3.47;;;;;;;-0.61;78.66;99915.28;4992614;28;20041;-46
2023/12/02 03:06:07;;;;;;;34.08;4.32;;;;;;;-0.61;78.59;99917.84;5004111;28;20050;-45
2023/12/02 03:08:35;;;;;;;19.05;4.75;;;;;;;-0.59;78.60;99918.78;5007780;28;20050;-46
2023/12/02 03:11:02;;;;;;;18.63;4.07;;;;;;;-0.57;78.48;99919.69;4989175;28;20082;-44
2023/12/02 03:13:29;;;;;;;19.15;3.60;;;;;;;-0.57;78.65;99914.59;5004847;28;20411;-46
2023/12/02 03:15:55;;;;;;;8.98;3.13;;;;;;;-0.56;78.82;99923.13;5001368;28;20104;-44
2023/12/02 03:18:22;;;;;;;25.33;5.05;;;;;;;-0.58;78.46;99914.56;4998728;28;20046;-44
2023/12/02 03:20:49;;;;;;;19.45;4.68;;;;;;;-0.58;78.57;99910.34;5004697;28;20553;-44
2023/12/02 03:23:16;;;;;;;18.25;4.40;;;;;;;-0.56;78.52;99913.81;4994770;28;20522;-45
2023/12/02 03:25:42;;;;;;;29.58;4.05;;;;;;;-0.55;78.52;99914.69;5007263;28;20077;-50
2023/12/02 03:28:09;;;;;;;27.00;5.03;;;;;;;-0.56;78.17;99918.91;5009895;28;20510;-47
2023/12/02 03:30:36;;;;;;;25.35;3.83;;;;;;;-0.56;78.42;99913.81;5005699;28;20061;-45
2023/12/02 03:33:03;;;;;;;29.80;5.53;;;;;;;-0.55;78.64;99913.00;5003071;28;20041;-43
2023/12/02 03:35:29;;;;;;;10.60;3.45;;;;;;;-0.54;78.26;99912.19;5002045;28;20070;-45
2023/12/02 03:37:56;;;;;;;16.70;4.90;;;;;;;-0.52;78.02;99914.81;5006535;28;20049;-47
2023/12/02 03:40:23;;;;;;;23.90;5.82;;;;;;;-0.52;78.20;99910.59;5005561;28;20154;-46
2023/12/02 03:42:49;;;;;;;37.22;5.10;;;;;;;-0.54;78.41;99907.09;5009031;28;20053;-44
2023/12/02 03:45:16;;;;;;;29.33;4.47;;;;;;;-0.56;78.50;99913.81;5006643;28;20048;-46
2023/12/02 03:47:43;;;;;;;21.85;3.95;;;;;;;-0.56;78.24;99911.28;5006658;28;20297;-53
2023/12/02 03:50:10;;;;;;;18.90;4.18;;;;;;;-0.56;78.35;99918.03;4991822;28;20165;-45
2023/12/02 03:52:36;;;;;;;1.13;1.00;;;;;;;-0.60;78.17;99917.06;5001344;28;20049;-47
2023/12/02 03:55:04;;;;;;;24.95;5.30;;;;;;;-0.61;78.19;99915.28;5007672;28;20046;-44
2023/12/02 03:57:30;;;;;;;20.65;3.92;;;;;;;-0.62;78.45;99927.94;5003331;28;20462;-45
2023/12/02 03:59:58;;;;;;;23.05;5.25;;;;;;;-0.64;78.04;99922.84;4998432;28;20132;-47
2023/12/02 04:02:24;;;;;;;22.75;5.00;;;;;;;-0.64;78.57;99922.84;4989246;28;20428;-45
2023/12/02 04:04:51;;;;;;;38.92;5.10;;;;;;;-0.64;78.32;99930.47;4999164;28;20134;-45
2023/12/02 04:07:18;;;;;;;29.08;3.60;;;;;;;-0.64;78.48;99933.00;5002191;28;20054;-46
2023/12/02 04:09:46;;;;;;;25.33;3.92;;;;;;;-0.67;78.26;99932.88;5006786;28;20396;-45
2023/12/02 04:12:13;;;;;;;36.38;4.20;;;;;;;-0.68;78.23;99941.28;5011906;28;20050;-48
2023/12/02 04:14:40;;;;;;;23.67;4.75;;;;;;;-0.69;78.00;99942.97;5009494;28;20042;-43
2023/12/02 04:17:08;;;;;;;12.73;4.20;;;;;;;-0.70;78.17;99941.25;5004777;28;20171;-40
2023/12/02 04:19:34;;;;;;;39.20;3.78;;;;;;;-0.70;78.27;99951.44;5007898;28;20057;-45
2023/12/02 04:22:01;;;;;;;20.92;3.03;;;;;;;-0.71;78.44;99943.72;5005592;28;20046;-44
2023/12/02 04:24:28;;;;;;;40.67;5.13;;;;;;;-0.72;77.79;99942.84;5010176;28;20057;-46
2023/12/02 04:26:55;;;;;;;24.42;4.28;;;;;;;-0.71;78.30;99943.72;5010213;28;20487;-44
2023/12/02 04:29:22;;;;;;;20.30;4.78;;;;;;;-0.73;78.01;99933.50;5012112;28;20072;-45
2023/12/02 04:31:49;;;;;;;25.65;4.25;;;;;;;-0.72;78.23;99950.47;5015138;28;20438;-44
2023/12/02 04:34:15;;;;;;;27.23;4.55;;;;;;;-0.73;77.99;99942.78;5011501;28;20057;-47
2023/12/02 04:36:43;;;;;;;20.23;3.90;;;;;;;-0.75;78.11;99944.41;5009692;28;20065;-43
2023/12/02 04:39:11;;;;;;;21.55;4.25;;;;;;;-0.76;77.94;99935.91;5008514;28;20057;-44
2023/12/02 04:41:38;;;;;;;18.45;3.20;;;;;;;-0.76;78.32;99942.66;5002216;28;20050;-46
2023/12/02 04:44:06;;;;;;;30.00;4.35;;;;;;;-0.78;78.00;99953.63;5010922;28;20049;-53
2023/12/02 04:46:32;;;;;;;32.40;4.80;;;;;;;-0.79;78.26;99962.09;5010539;28;20157;-49
2023/12/02 04:48:59;;;;;;;23.38;4.88;;;;;;;-0.80;78.45;99957.81;5015714;28;20068;-44
2023/12/02 04:51:26;;;;;;;49.55;5.32;;;;;;;-0.83;77.92;99960.22;5016089;28;20056;-47
2023/12/02 04:53:53;;;;;;;18.83;4.15;;;;;;;-0.83;78.04;99957.66;5010381;28;20068;-45
2023/12/02 04:56:19;;;;;;;18.77;4.38;;;;;;;-0.83;77.62;99965.31;5011538;28;20129;-48
2023/12/02 04:58:46;;;;;;;14.60;4.30;;;;;;;-0.81;77.88;99967.91;4999577;28;20122;-40
2023/12/02 05:01:13;;;;;;;21.88;4.18;;;;;;;-0.83;78.29;99970.38;5004120;28;20052;-43
2023/12/02 05:03:40;;;;;;;10.38;3.47;;;;;;;-0.83;77.90;99964.41;5009416;28;20081;-41
2023/12/02 05:06:13;;;;;;;15.07;4.75;;;;;;;-0.84;78.09;99971.16;5009994;28;20142;-49
2023/12/02 05:08:40;;;;;;;9.30;2.50;;;;;;;-0.86;78.06;99972.78;5010122;28;20553;-46
2023/12/02 05:11:07;;;;;;;39.03;3.50;;;;;;;-0.89;78.01;99965.03;5011824;28;20053;-50
2023/12/02 05:13:34;;;;;;;20.70;3.53;;;;;;;-0.88;77.99;99973.53;5010260;28;20391;-44
2023/12/02 05:16:00;;;;;;;18.75;2.92;;;;;;;-0.90;78.17;99978.56;5007130;28;20076;-43
2023/12/02 05:18:27;;;;;;;34.50;4.72;;;;;;;-0.92;78.03;99980.16;5003289;28;20049;-45
2023/12/02 05:20:54;;;;;;;18.48;3.25;;;;;;;-0.94;78.11;99984.31;5004636;28;20069;-46
2023/12/02 05:23:21;;;;;;;23.90;3.65;;;;;;;-0.95;77.59;99985.13;5015175;28;20244;-45
2023/12/02 05:25:47;;;;;;;13.93;3.13;;;;;;;-0.97;77.83;99981.63;5007459;28;20053;-46
2023/12/02 05:28:14;;;;;;;26.75;3.80;;;;;;;-0.97;78.11;99984.19;5012768;28;20541;-48
2023/12/02 05:30:41;;;;;;;26.58;4.18;;;;;;;-0.99;77.98;99983.22;5011162;28;20550;-43
2023/12/02 05:33:07;;;;;;;8.98;3.53;;;;;;;-1.00;77.78;99987.47;5010739;28;20420;-43
2023/12/02 05:35:35;;;;;;;12.10;3.25;;;;;;;-0.99;77.83;99983.22;4998713;28;20050;-46
2023/12/02 05:38:01;;;;;;;18.35;5.43;;;;;;;-0.99;78.12;99978.16;5008552;28;20045;-45
2023/12/02 05:40:28;;;;;;;17.00;4.63;;;;;;;-0.99;78.66;99976.47;5009714;28;20046;-44
2023/12/02 05:42:55;;;;;;;32.50;4.53;;;;;;;-0.96;77.94;99983.38;5009631;28;20129;-47
2023/12/02 05:45:22;;;;;;;3.65;1.15;;;;;;;-0.98;78.21;99979.91;5008073;28;20180;-45
2023/12/02 05:47:48;;;;;;;20.95;4.18;;;;;;;-0.97;78.34;99977.44;5014640;28;20045;-43
2023/12/02 05:50:16;;;;;;;10.23;1.77;;;;;;;-0.98;78.41;99985.00;5002667;28;20046;-42
2023/12/02 05:52:43;;;;;;;11.25;4.18;;;;;;;-1.00;77.89;99981.50;5004446;28;20053;-46
2023/12/02 05:55:10;;;;;;;6.45;2.97;;;;;;;-1.02;78.22;99985.66;5006482;28;20042;-46
2023/12/02 05:57:36;;;;;;;16.20;4.07;;;;;;;-1.02;78.07;99980.59;5012180;28;20054;-48
2023/12/02 06:00:04;;;;;;;18.95;3.63;;;;;;;-1.02;77.92;99983.13;5012946;28;20494;-45
2023/12/02 06:02:31;;;;;;;22.92;4.72;;;;;;;-1.01;78.10;99984.84;5006772;28;20050;-49
2023/12/02 06:04:57;;;;;;;22.42;3.10;;;;;;;-1.01;77.88;99989.94;5002330;28;20072;-52
2023/12/02 06:07:24;;;;;;;31.80;4.13;;;;;;;-1.06;77.77;99988.06;5007630;28;20116;-45
2023/12/02 06:09:51;;;;;;;9.85;3.20;;;;;;;-1.08;77.62;99988.81;5009585;28;20050;-46
2023/12/02 06:12:18;;;;;;;12.98;3.97;;;;;;;-1.11;77.60;99989.56;5009369;28;20046;-48
2023/12/02 06:14:44;;;;;;;19.35;2.75;;;;;;;-1.12;77.98;99992.88;5009322;28;20064;-51
2023/12/02 06:17:11;;;;;;;10.57;3.00;;;;;;;-1.13;77.64;99996.22;5006462;28;20049;-46
2023/12/02 06:19:37;;;;;;;14.23;2.97;;;;;;;-1.13;78.34;99995.34;5006090;28;20042;-46
2023/12/02 06:22:04;;;;;;;23.20;4.18;;;;;;;-1.13;77.94;99995.34;4995421;28;20042;-48
2023/12/02 06:24:31;;;;;;;31.70;3.78;;;;;;;-1.13;77.79;99993.69;4997534;28;20073;-47
2023/12/02 06:26:57;;;;;;;22.98;4.43;;;;;;;-1.10;78.01;99996.38;5002438;28;20057;-49
2023/12/02 06:29:24;;;;;;;15.48;4.72;;;;;;;-1.08;78.00;99994.75;5010009;28;20439;-47
2023/12/02 06:31:51;;;;;;;30.05;3.83;;;;;;;-1.08;78.17;99994.75;4997604;28;20046;-48
2023/12/02 06:34:19;;;;;;;15.32;3.50;;;;;;;-1.05;77.88;100004.16;5000838;28;20046;-45
2023/12/02 06:36:46;;;;;;;22.00;3.42;;;;;;;-1.05;78.26;100007.59;4989147;28;20054;-46
2023/12/02 06:39:12;;;;;;;16.58;2.92;;;;;;;-1.06;77.66;100008.41;4999663;28;20046;-43
2023/12/02 06:41:41;;;;;;;22.45;3.65;;;;;;;-1.05;78.18;100010.13;5007323;28;20074;-46
2023/12/02 06:44:09;;;;;;;21.85;3.97;;;;;;;-1.05;78.03;100020.31;5008273;28;20057;-43
2023/12/02 06:46:35;;;;;;;24.85;3.75;;;;;;;-1.05;77.95;100017.75;5005037;28;20050;-43
2023/12/02 06:49:02;;;;;;;9.68;1.98;;;;;;;-1.06;77.90;100023.66;5005941;28;20487;-46
2023/12/02 06:51:29;;;;;;;17.70;3.45;;;;;;;-1.09;77.80;100020.97;5010246;28;20138;-45
2023/12/02 06:53:57;;;;;;;14.98;3.83;;;;;;;-1.11;77.66;100025.16;5011829;28;20129;-46
2023/12/02 06:56:25;;;;;;;8.73;3.00;;;;;;;-1.13;77.70;100025.84;5008186;28;20058;-44
2023/12/02 06:58:52;;;;;;;14.63;2.63;;;;;;;-1.14;77.66;100034.28;5008437;28;20042;-48
2023/12/02 07:01:24;;;;;;;13.20;3.65;;;;;;;-1.16;77.81;100034.22;5002781;28;20042;-43
2023/12/02 07:03:51;;;;;;;23.13;2.80;;;;;;;-1.16;77.78;100041.84;5007668;28;20415;-44
2023/12/02 07:06:17;;;;;;;13.07;2.85;;;;;;;-1.20;77.78;100032.34;5007006;28;20057;-45
2023/12/02 07:08:44;;;;;;;6.70;2.25;;;;;;;-1.22;77.67;100036.50;5012001;28;20100;-49
2023/12/02 07:11:11;;;;;;;15.02;2.92;;;;;;;-1.23;77.54;100032.19;5007168;28;20050;-44
2023/12/02 07:13:37;;;;;;;12.65;2.38;;;;;;;-1.24;78.05;100033.00;5006658;28;20046;-47
2023/12/02 07:16:04;;;;;;;7.90;2.60;;;;;;;-1.26;77.62;100029.50;5000811;28;20128;-46
2023/12/02 07:18:31;;;;;;;10.43;3.03;;;;;;;-1.28;77.46;100031.13;4990380;28;20054;-42
2023/12/02 07:20:58;;;;;;;17.48;3.72;;;;;;;-1.30;77.98;100034.47;5006128;28;20057;-43
2023/12/02 07:23:25;;;;;;;17.10;2.05;;;;;;;-1.32;77.88;100035.22;4987775;28;20062;-43
2023/12/02 07:25:52;;;;;;;15.00;2.40;;;;;;;-1.35;77.45;100038.47;5006396;28;20045;-49
2023/12/02 07:28:19;;;;;;;15.88;2.65;;;;;;;-1.36;77.35;100036.72;5007264;28;20054;-46
2023/12/02 07:30:46;;;;;;;17.13;2.53;;;;;;;-1.39;77.51;100034.03;5000929;28;20042;-41
2023/12/02 07:33:12;;;;;;;10.38;2.67;;;;;;;-1.43;77.09;100039.78;5003046;28;20080;-48
2023/12/02 07:35:39;;;;;;;14.50;3.50;;;;;;;-1.46;77.23;100042.19;5013270;28;20050;-46
2023/12/02 07:38:06;;;;;;;19.33;4.63;;;;;;;-1.45;77.49;100049.03;5010172;28;20050;-45
2023/12/02 07:40:32;;;;;;;13.82;3.72;;;;;;;-1.46;77.23;100048.16;5005698;28;20495;-44
2023/12/02 07:42:59;;;;;;;6.85;2.65;;;;;;;-1.47;77.42;100061.66;5008155;28;20045;-47
2023/12/02 07:45:26;;;;;;;17.98;2.92;;;;;;;-1.48;77.11;100056.50;4994093;28;20061;-51
2023/12/02 07:47:53;;;;;;;34.65;5.65;;;;;;;-1.51;77.53;100054.69;5000764;28;20053;-49
2023/12/02 07:50:21;;;;;;;8.98;2.90;;;;;;;-1.51;77.54;100058.91;5000528;28;20050;-46
2023/12/02 07:52:47;;;;;;;18.55;2.60;;;;;;;-1.52;77.34;100074.94;4998859;28;20041;-46
2023/12/02 07:55:14;;;;;;;33.60;5.55;;;;;;;-1.56;77.07;100062.09;5002754;28;20045;-45
2023/12/02 07:57:40;;;;;;;11.52;2.45;;;;;;;-1.55;77.63;100073.13;5000267;28;20045;-46
2023/12/02 08:00:08;;;;;;;5.68;1.90;;;;;;;-1.58;77.78;100067.91;5008183;28;20053;-46
2023/12/02 08:02:34;;;;;;;11.95;4.00;;;;;;;-1.57;77.32;100072.19;5006966;28;20503;-48
2023/12/02 08:05:01;;;;;;;9.57;3.50;;;;;;;-1.56;77.47;100072.25;5003833;28;20069;-46
2023/12/02 08:07:31;;;;;;;9.35;3.00;;;;;;;-1.55;77.73;100066.38;5003986;28;20049;-47
2023/12/02 08:09:57;;;;;;;34.08;8.80;;;;;;;-1.55;77.71;100066.38;5008534;28;20050;-44
2023/12/02 08:12:24;;;;;;;8.70;3.85;;;;;;;-1.53;77.87;100068.13;5007729;28;20085;-44
2023/12/02 08:14:50;;;;;;;19.00;5.63;;;;;;;-1.50;77.36;100065.72;5009584;28;20049;-44
2023/12/02 08:17:17;;;;;;;21.45;4.00;;;;;;;-1.49;77.63;100075.09;5009696;28;20550;-51
2023/12/02 08:19:44;;;;;;;18.35;6.40;;;;;;;-1.46;77.59;100075.22;5004620;28;20042;-42
2023/12/02 08:22:11;;;;;;;11.98;4.80;;;;;;;-1.43;77.38;100082.97;5005738;28;20160;-47
2023/12/02 08:24:42;;;;;;;11.38;3.97;;;;;;;-1.43;77.81;100090.59;5004120;28;20046;-49
2023/12/02 08:27:09;;;;;;;9.77;3.05;;;;;;;-1.44;77.66;100097.38;5003475;28;20503;-49
2023/12/02 08:29:36;;;;;;;16.50;6.30;;;;;;;-1.44;77.48;100091.41;5009024;28;20050;-44
2023/12/02 08:32:03;;;;;;;9.38;3.70;;;;;;;-1.46;77.60;100090.47;5008944;28;20407;-43
2023/12/02 08:34:30;;;;;;;33.85;12.50;;;;;;;-1.46;77.24;100091.34;5009115;28;20050;-44
2023/12/02 08:36:57;;;;;;;22.00;8.70;;;;;;;-1.47;77.76;100091.25;5008702;28;20050;-45
2023/12/02 08:39:24;;;;;;;37.28;11.90;;;;;;;-1.46;77.40;100093.00;5009060;28;20054;-45
2023/12/02 08:41:51;;;;;;;17.52;6.65;;;;;;;-1.42;77.69;100092.34;5009918;28;20088;-43
2023/12/02 08:44:17;;;;;;;15.57;3.40;;;;;;;-1.41;77.58;100096.66;5009029;28;20722;-44
2023/12/02 08:46:44;;;;;;;7.13;2.70;;;;;;;-1.38;77.32;100096.78;5004117;28;20046;-50
2023/12/02 08:49:19;;;;;;;14.65;3.63;;;;;;;-1.35;77.42;100091.81;5004355;28;20145;-44
2023/12/02 08:51:46;;;;;;;13.93;4.13;;;;;;;-1.27;77.58;100094.75;5007967;28;20045;-45
2023/12/02 08:54:13;;;;;;;12.52;3.05;;;;;;;-1.23;78.14;100095.75;5003554;28;20125;-45
2023/12/02 08:56:40;;;;;;;17.42;3.53;;;;;;;-1.21;77.24;100089.91;5009412;28;20072;-50
2023/12/02 08:59:06;;;;;;;26.83;4.20;;;;;;;-1.18;77.80;100090.06;4997983;28;20100;-49
2023/12/02 09:01:33;;;;;;;17.00;3.10;;;;;;;-1.15;77.36;100089.31;5005020;28;20053;-45
2023/12/02 09:04:00;;;;;;;27.13;5.40;;;;;;;-1.13;77.38;100087.75;5004546;28;20054;-45
2023/12/02 09:06:27;;;;;;;12.88;4.00;;;;;;;-1.08;77.52;100096.44;5004820;28;20053;-44
2023/12/02 09:08:55;;;;;;;23.42;5.00;;;;;;;-1.06;77.43;100094.84;5005058;28;20050;-49
2023/12/02 09:11:22;;;;;;;20.98;3.08;;;;;;;-1.06;77.37;100088.88;4994541;28;20112;-47
2023/12/02 09:13:49;;;;;;;27.70;4.18;;;;;;;-1.03;77.22;100094.13;5001584;28;20100;-54
2023/12/02 09:18:53;;;;;;;10.77;2.17;;;;;;;-1.02;77.27;100097.53;5016026;28;20818;-47
2023/12/02 09:24:02;;;;;;;17.25;4.43;;;;;;;-0.97;77.17;100098.59;5036456;27;20403;-44
2023/12/02 09:26:34;;;;;;;14.70;3.75;;;;;;;-0.93;77.16;100105.56;4991209;28;20046;-43
2023/12/02 09:29:01;;;;;;;12.38;2.65;;;;;;;-0.95;77.09;100112.28;4993964;28;20054;-45
2023/12/02 09:31:28;;;;;;;12.50;2.55;;;;;;;-0.95;77.05;100112.28;4988023;28;20054;-48
2023/12/02 09:33:58;;;;;;;21.15;6.45;;;;;;;-0.91;77.12;100124.31;4989600;28;20105;-42
2023/12/02 09:41:49;;;;;;;19.80;4.03;;;;;;;-0.81;77.26;100116.28;5047920;28;20394;-45
2023/12/02 09:44:41;;;;;;;28.65;5.45;;;;;;;-0.80;77.10;100128.22;5038603;28;20048;-42
2023/12/02 09:47:21;;;;;;;13.32;5.45;;;;;;;-0.79;76.71;100129.06;5020501;28;20054;-47
2023/12/02 09:50:09;;;;;;;19.35;6.63;;;;;;;-0.81;76.77;100121.38;5016636;28;20127;-48
2023/12/02 09:58:23;;;;;;;25.20;3.67;;;;;;;-0.69;76.95;100135.44;5045765;28;20385;-47
2023/12/02 10:00:54;;;;;;;12.63;3.75;;;;;;;-0.68;77.02;100127.88;5041456;28;20106;-49
2023/12/02 10:12:16;;;;;;;30.75;4.10;;;;;;;-0.38;77.17;100129.13;5041559;28;20390;-44
2023/12/02 10:14:45;;;;;;;23.38;4.10;;;;;;;-0.35;76.97;100131.81;4980279;28;20482;-48
2023/12/02 10:17:14;;;;;;;14.88;3.80;;;;;;;-0.30;76.97;100137.97;4975815;28;20042;-48
2023/12/02 10:19:51;;;;;;;10.75;3.15;;;;;;;-0.30;76.65;100139.66;4980584;28;20049;-46
2023/12/02 10:22:22;;;;;;;18.75;3.47;;;;;;;-0.29;77.22;100133.75;4975812;28;20269;-42
2023/12/02 10:27:31;;;;;;;15.02;2.92;;;;;;;-0.33;76.85;100140.41;5081700;27;20419;-46
2023/12/02 10:32:54;;;;;;;10.32;2.88;;;;;;;-0.23;77.31;100130.59;5034809;28;20394;-41
2023/12/02 10:40:47;;;;;;;12.10;5.47;;;;;;;-0.14;76.89;100130.97;5008707;28;20423;-48
2023/12/02 10:43:27;;;;;;;13.18;3.38;;;;;;;-0.12;76.99;100129.38;4982264;28;20057;-49
2023/12/02 10:45:55;;;;;;;8.27;1.90;;;;;;;-0.04;76.63;100132.25;4984113;28;20080;-49
2023/12/02 10:48:22;;;;;;;8.85;3.13;;;;;;;0.02;76.22;100129.06;4987264;28;20098;-42
2023/12/02 10:50:49;;;;;;;10.88;2.78;;;;;;;0.09;77.15;100118.34;4974392;28;20591;-47
2023/12/02 10:53:20;;;;;;;11.88;2.40;;;;;;;0.22;77.14;100120.59;4980286;28;20371;-42
2023/12/02 10:55:53;;;;;;;19.13;2.97;;;;;;;0.32;76.35;100115.84;4994996;28;20070;-40
2023/12/02 10:58:20;;;;;;;16.73;4.18;;;;;;;0.37;76.40;100119.44;5000954;28;20070;-48
2023/12/02 11:00:56;;;;;;;25.90;2.75;;;;;;;0.43;76.30;100119.69;4984293;28;20057;-48
2023/12/02 11:03:51;;;;;;;9.10;3.35;;;;;;;0.51;76.33;100113.22;4976652;28;20059;-52
2023/12/02 11:06:29;;;;;;;11.27;1.70;;;;;;;0.60;75.98;100114.38;4970705;28;20094;-43
2023/12/02 11:09:07;;;;;;;8.70;2.65;;;;;;;0.66;76.49;100112.09;4976294;28;20046;-49
2023/12/02 11:14:22;;;;;;;16.30;3.80;;;;;;;0.86;76.95;100109.44;5020450;28;20407;-43
2023/12/02 11:25:07;;;;;;;10.40;2.22;;;;;;;1.39;75.97;100108.81;5085615;27;20391;-40
2023/12/02 11:30:54;;;;;;;15.75;5.15;;;;;;;1.44;76.19;100108.94;5032499;28;20390;-46
2023/12/02 11:36:33;;;;;;;10.65;2.60;;;;;;;1.34;76.36;100113.75;5054247;28;20389;-51
2023/12/02 11:44:26;;;;;;;12.23;2.83;;;;;;;1.20;76.27;100123.44;5064706;28;20391;-46
2023/12/02 11:47:33;;;;;;;7.78;2.72;;;;;;;1.15;75.03;100113.06;5011880;28;20464;-41
2023/12/02 11:55:43;;;;;;;11.38;3.35;;;;;;;1.15;75.50;100117.31;5034179;28;20424;-46
2023/12/02 12:11:54;;;;;;;15.32;2.78;;;;;;;1.25;75.94;100103.22;5062009;27;20364;-46
2023/12/02 12:14:21;;;;;;;12.57;2.83;;;;;;;1.30;75.58;100111.00;5011515;28;20046;-50
2023/12/02 12:16:49;;;;;;;11.27;2.67;;;;;;;1.35;75.68;100115.47;5012348;28;20041;-46
2023/12/02 12:19:16;;;;;;;16.77;2.50;;;;;;;1.37;76.00;100105.31;5018727;28;20503;-50
2023/12/02 12:21:44;;;;;;;9.13;3.33;;;;;;;1.39;75.15;100109.66;5017865;28;20045;-48
2023/12/02 12:24:10;;;;;;;15.80;6.22;;;;;;;1.44;76.60;100108.94;5011548;28;20073;-45
2023/12/02 12:26:37;;;;;;;45.50;16.98;;;;;;;1.46;76.54;100115.00;5017551;28;20571;-51
2023/12/02 12:29:04;;;;;;;12.20;5.15;;;;;;;1.48;75.00;100110.78;5006018;28;20046;-46
2023/12/02 12:31:30;;;;;;;68.25;27.98;;;;;;;1.50;75.04;100114.28;5016389;28;20046;-52
2023/12/02 12:34:03;;;;;;;8.38;3.92;;;;;;;1.56;75.39;100121.28;5001893;28;20050;-45
2023/12/02 12:36:31;;;;;;;15.27;3.08;;;;;;;1.57;75.32;100120.47;5008774;28;20419;-50
2023/12/02 12:38:59;;;;;;;7.30;2.60;;;;;;;1.53;76.16;100114.41;5005392;28;20369;-47
2023/12/02 12:41:27;;;;;;;8.25;3.42;;;;;;;1.46;76.06;100115.88;5017859;28;20066;-52
2023/12/02 12:43:54;;;;;;;6.68;3.10;;;;;;;1.44;75.43;100114.94;5001438;28;20058;-47
2023/12/02 12:46:20;;;;;;;7.43;2.60;;;;;;;1.43;75.77;100110.66;5017783;28;20119;-51